Terminal Aerodrome Forecast
Issued by NWS Louisville, KY

Home | Current Version | Previous Version | Text Only | Print | Product List | Glossary On
Versions: 1 2 3 4 5 6 7 8 9 10 11 12 13 14 15
000
FTUS43 KLMK 211728
TAFBWG
TAF
KBWG 211728Z 2118/2218 11005KT P6SM SCT040
     FM220100 00000KT P6SM FEW200
     FM220900 00000KT 3SM BR FEW200
      TEMPO 2210/2213 1SM BR
     FM221400 09005KT P6SM FEW050=

USA.gov is the U.S. government's official web portal to all federal, state and local government web resources and services.